Hlavní strana
METAR-TAF:

METAR-TAF

Letiště :

Kingstree, Jižní Karolína, Spojené státy americké

zeměpisná šířka: 33-43-02N, zeměpisná délka: 079-51-25W, výška: 20 m

Aktuální stav počasí

Zpráva byla vytvořena před 7 minutami, v 09:35 UTC
Bezvětří
Teplota 8°C
Vlhkost vzduchu 100%
Tlak 1019 hPa
Viditelnost: 11.3 km
Jasno

METAR: KCKI 060935Z AUTO 00000KT 7SM CLR 08/08 A3008 RMK AO2

Čas: 05:42 (09:42 UTC)


TAF: chybějící

Stav a předpovědi počasí z více než 4 000 letišť (zprávy METAR a TAF).

Červené a žluté tečky na mapě představují dostupné meteorologické stanice.

Když kurzor umístíte na tečku, zobrazí se název stanice.

Pak kliknutím zobrazíte stav a předpověď počasí.

Chcete-li změnit mapu, kliknutím na zelené tlačítko se znaménkem +mapu přiblížíte, kliknutím na zelené tlačítko se znaménkem – mapu oddálíte a kliknutím na zelené šipky přejdete na sousední mapy.


METAR-TAF: